sensor_id;sensor_type;location;lat;lon;timestamp;P1;durP1;ratioP1;P2;durP2;ratioP2
61017;SDS011;48171;51.550;5.434;2023-04-06T00:00:57;30.02;;;16.00;;
61017;SDS011;48171;51.550;5.434;2023-04-06T00:03:23;32.58;;;16.65;;
61017;SDS011;48171;51.550;5.434;2023-04-06T00:05:48;34.33;;;17.88;;
61017;SDS011;48171;51.550;5.434;2023-04-06T00:08:14;31.25;;;16.38;;
61017;SDS011;48171;51.550;5.434;2023-04-06T00:10:39;31.58;;;16.23;;
61017;SDS011;48171;51.550;5.434;2023-04-06T00:13:05;34.45;;;15.63;;
61017;SDS011;48171;51.550;5.434;2023-04-06T00:15:31;34.15;;;15.82;;
61017;SDS011;48171;51.550;5.434;2023-04-06T00:17:57;31.13;;;15.65;;
61017;SDS011;48171;51.550;5.434;2023-04-06T00:20:22;39.90;;;16.85;;
61017;SDS011;48171;51.550;5.434;2023-04-06T00:22:47;36.13;;;16.67;;
61017;SDS011;48171;51.550;5.434;2023-04-06T00:25:13;33.25;;;15.75;;
61017;SDS011;48171;51.550;5.434;2023-04-06T00:27:40;31.92;;;16.67;;
61017;SDS011;48171;51.550;5.434;2023-04-06T00:30:05;29.35;;;15.20;;
61017;SDS011;48171;51.550;5.434;2023-04-06T00:32:32;31.40;;;15.63;;
61017;SDS011;48171;51.550;5.434;2023-04-06T00:34:57;29.42;;;13.95;;
61017;SDS011;48171;51.550;5.434;2023-04-06T00:37:23;29.58;;;15.05;;
61017;SDS011;48171;51.550;5.434;2023-04-06T00:39:48;32.58;;;14.85;;
61017;SDS011;48171;51.550;5.434;2023-04-06T00:42:16;29.48;;;14.73;;
61017;SDS011;48171;51.550;5.434;2023-04-06T00:44:43;36.70;;;15.65;;
61017;SDS011;48171;51.550;5.434;2023-04-06T00:47:08;30.42;;;14.68;;
61017;SDS011;48171;51.550;5.434;2023-04-06T00:49:34;36.38;;;16.30;;
61017;SDS011;48171;51.550;5.434;2023-04-06T00:51:59;31.13;;;15.18;;
61017;SDS011;48171;51.550;5.434;2023-04-06T00:54:26;32.15;;;15.52;;
61017;SDS011;48171;51.550;5.434;2023-04-06T00:56:51;29.75;;;14.85;;
61017;SDS011;48171;51.550;5.434;2023-04-06T00:59:16;30.67;;;14.52;;
61017;SDS011;48171;51.550;5.434;2023-04-06T01:01:42;33.67;;;15.38;;
61017;SDS011;48171;51.550;5.434;2023-04-06T01:04:07;31.20;;;14.30;;
61017;SDS011;48171;51.550;5.434;2023-04-06T01:06:33;30.67;;;13.98;;
61017;SDS011;48171;51.550;5.434;2023-04-06T01:08:58;26.48;;;13.63;;
61017;SDS011;48171;51.550;5.434;2023-04-06T01:11:24;27.55;;;13.48;;
61017;SDS011;48171;51.550;5.434;2023-04-06T01:13:49;32.83;;;14.30;;
61017;SDS011;48171;51.550;5.434;2023-04-06T01:16:15;30.65;;;14.48;;
61017;SDS011;48171;51.550;5.434;2023-04-06T01:18:40;31.98;;;14.45;;
61017;SDS011;48171;51.550;5.434;2023-04-06T01:21:07;30.83;;;14.93;;
61017;SDS011;48171;51.550;5.434;2023-04-06T01:23:33;35.60;;;14.48;;
61017;SDS011;48171;51.550;5.434;2023-04-06T01:25:59;26.00;;;13.60;;
61017;SDS011;48171;51.550;5.434;2023-04-06T01:28:25;34.85;;;13.40;;
61017;SDS011;48171;51.550;5.434;2023-04-06T01:30:50;31.70;;;13.60;;
61017;SDS011;48171;51.550;5.434;2023-04-06T01:33:15;30.20;;;13.70;;
61017;SDS011;48171;51.550;5.434;2023-04-06T01:35:41;29.65;;;14.02;;
61017;SDS011;48171;51.550;5.434;2023-04-06T01:38:06;30.80;;;14.13;;
61017;SDS011;48171;51.550;5.434;2023-04-06T01:40:31;30.27;;;14.90;;
61017;SDS011;48171;51.550;5.434;2023-04-06T01:42:56;32.33;;;14.63;;
61017;SDS011;48171;51.550;5.434;2023-04-06T01:45:22;31.20;;;14.15;;
61017;SDS011;48171;51.550;5.434;2023-04-06T01:47:47;32.90;;;13.90;;
61017;SDS011;48171;51.550;5.434;2023-04-06T01:50:12;28.25;;;14.18;;
61017;SDS011;48171;51.550;5.434;2023-04-06T01:52:38;31.02;;;13.85;;
61017;SDS011;48171;51.550;5.434;2023-04-06T01:55:03;35.50;;;15.77;;
61017;SDS011;48171;51.550;5.434;2023-04-06T01:57:28;33.05;;;15.40;;
61017;SDS011;48171;51.550;5.434;2023-04-06T01:59:54;37.08;;;15.80;;
61017;SDS011;48171;51.550;5.434;2023-04-06T02:02:19;31.20;;;14.65;;
61017;SDS011;48171;51.550;5.434;2023-04-06T02:04:44;30.35;;;14.85;;
61017;SDS011;48171;51.550;5.434;2023-04-06T02:07:09;35.63;;;16.23;;
61017;SDS011;48171;51.550;5.434;2023-04-06T02:09:35;35.10;;;15.63;;
61017;SDS011;48171;51.550;5.434;2023-04-06T02:12:01;35.22;;;15.20;;
61017;SDS011;48171;51.550;5.434;2023-04-06T02:14:26;34.80;;;16.00;;
61017;SDS011;48171;51.550;5.434;2023-04-06T02:16:52;34.28;;;14.82;;
61017;SDS011;48171;51.550;5.434;2023-04-06T02:19:17;40.10;;;17.67;;
61017;SDS011;48171;51.550;5.434;2023-04-06T02:21:43;40.30;;;17.13;;
61017;SDS011;48171;51.550;5.434;2023-04-06T02:24:08;38.65;;;17.08;;
61017;SDS011;48171;51.550;5.434;2023-04-06T02:26:33;39.83;;;16.52;;
61017;SDS011;48171;51.550;5.434;2023-04-06T02:28:58;37.30;;;16.73;;
61017;SDS011;48171;51.550;5.434;2023-04-06T02:31:24;39.30;;;16.85;;
61017;SDS011;48171;51.550;5.434;2023-04-06T02:33:49;40.60;;;17.75;;
61017;SDS011;48171;51.550;5.434;2023-04-06T02:36:14;37.97;;;17.15;;
61017;SDS011;48171;51.550;5.434;2023-04-06T02:38:40;41.65;;;17.83;;
61017;SDS011;48171;51.550;5.434;2023-04-06T02:41:05;46.30;;;18.50;;
61017;SDS011;48171;51.550;5.434;2023-04-06T02:43:30;44.55;;;18.05;;
61017;SDS011;48171;51.550;5.434;2023-04-06T02:45:56;42.55;;;18.35;;
61017;SDS011;48171;51.550;5.434;2023-04-06T02:48:21;42.17;;;18.27;;
61017;SDS011;48171;51.550;5.434;2023-04-06T02:50:46;46.38;;;19.45;;
61017;SDS011;48171;51.550;5.434;2023-04-06T02:53:12;48.22;;;19.65;;
61017;SDS011;48171;51.550;5.434;2023-04-06T02:55:37;43.60;;;18.38;;
61017;SDS011;48171;51.550;5.434;2023-04-06T02:58:02;44.22;;;19.70;;
61017;SDS011;48171;51.550;5.434;2023-04-06T03:00:27;40.17;;;18.70;;
61017;SDS011;48171;51.550;5.434;2023-04-06T03:02:53;49.17;;;19.67;;
61017;SDS011;48171;51.550;5.434;2023-04-06T03:05:18;47.33;;;20.13;;
61017;SDS011;48171;51.550;5.434;2023-04-06T03:07:43;44.00;;;19.58;;
61017;SDS011;48171;51.550;5.434;2023-04-06T03:10:09;46.85;;;19.80;;
61017;SDS011;48171;51.550;5.434;2023-04-06T03:12:35;48.17;;;21.25;;
61017;SDS011;48171;51.550;5.434;2023-04-06T03:15:00;47.83;;;19.80;;
61017;SDS011;48171;51.550;5.434;2023-04-06T03:17:25;46.30;;;19.98;;
61017;SDS011;48171;51.550;5.434;2023-04-06T03:19:50;38.42;;;18.73;;
61017;SDS011;48171;51.550;5.434;2023-04-06T03:22:16;48.65;;;19.65;;
61017;SDS011;48171;51.550;5.434;2023-04-06T03:24:41;49.83;;;19.40;;
61017;SDS011;48171;51.550;5.434;2023-04-06T03:27:06;46.40;;;20.55;;
61017;SDS011;48171;51.550;5.434;2023-04-06T03:29:31;53.60;;;21.45;;
61017;SDS011;48171;51.550;5.434;2023-04-06T03:31:57;48.42;;;20.13;;
61017;SDS011;48171;51.550;5.434;2023-04-06T03:34:22;55.45;;;22.40;;
61017;SDS011;48171;51.550;5.434;2023-04-06T03:36:47;50.00;;;21.17;;
61017;SDS011;48171;51.550;5.434;2023-04-06T03:39:12;52.13;;;22.00;;
61017;SDS011;48171;51.550;5.434;2023-04-06T03:41:38;60.03;;;21.63;;
61017;SDS011;48171;51.550;5.434;2023-04-06T03:44:04;48.63;;;20.80;;
61017;SDS011;48171;51.550;5.434;2023-04-06T03:46:30;52.15;;;20.98;;
61017;SDS011;48171;51.550;5.434;2023-04-06T03:48:55;50.67;;;21.20;;
61017;SDS011;48171;51.550;5.434;2023-04-06T03:51:21;53.53;;;22.15;;
61017;SDS011;48171;51.550;5.434;2023-04-06T03:53:46;54.83;;;21.45;;
61017;SDS011;48171;51.550;5.434;2023-04-06T03:56:11;50.78;;;22.50;;
61017;SDS011;48171;51.550;5.434;2023-04-06T03:58:37;52.00;;;21.63;;
61017;SDS011;48171;51.550;5.434;2023-04-06T04:01:02;49.83;;;22.60;;
61017;SDS011;48171;51.550;5.434;2023-04-06T04:03:27;54.95;;;22.00;;
61017;SDS011;48171;51.550;5.434;2023-04-06T04:05:53;48.92;;;21.13;;
61017;SDS011;48171;51.550;5.434;2023-04-06T04:08:20;49.60;;;21.23;;
61017;SDS011;48171;51.550;5.434;2023-04-06T04:10:45;55.25;;;20.67;;
61017;SDS011;48171;51.550;5.434;2023-04-06T04:13:11;56.72;;;22.90;;
61017;SDS011;48171;51.550;5.434;2023-04-06T04:15:36;55.85;;;23.10;;
61017;SDS011;48171;51.550;5.434;2023-04-06T04:18:01;55.33;;;23.95;;
61017;SDS011;48171;51.550;5.434;2023-04-06T04:20:26;56.60;;;22.98;;
61017;SDS011;48171;51.550;5.434;2023-04-06T04:22:53;57.15;;;22.75;;
61017;SDS011;48171;51.550;5.434;2023-04-06T04:25:18;60.78;;;23.73;;
61017;SDS011;48171;51.550;5.434;2023-04-06T04:27:44;62.35;;;24.02;;
61017;SDS011;48171;51.550;5.434;2023-04-06T04:30:09;59.80;;;23.08;;
61017;SDS011;48171;51.550;5.434;2023-04-06T04:32:35;56.13;;;23.77;;
61017;SDS011;48171;51.550;5.434;2023-04-06T04:35:00;55.65;;;22.88;;
61017;SDS011;48171;51.550;5.434;2023-04-06T04:37:25;62.58;;;23.90;;
61017;SDS011;48171;51.550;5.434;2023-04-06T04:39:51;61.00;;;24.40;;
61017;SDS011;48171;51.550;5.434;2023-04-06T04:42:16;57.80;;;23.67;;
61017;SDS011;48171;51.550;5.434;2023-04-06T04:44:41;61.40;;;23.83;;
61017;SDS011;48171;51.550;5.434;2023-04-06T04:47:06;61.33;;;24.42;;
61017;SDS011;48171;51.550;5.434;2023-04-06T04:49:32;65.22;;;24.20;;
61017;SDS011;48171;51.550;5.434;2023-04-06T04:51:57;56.28;;;24.70;;
61017;SDS011;48171;51.550;5.434;2023-04-06T04:54:22;60.75;;;24.23;;
61017;SDS011;48171;51.550;5.434;2023-04-06T04:56:48;60.83;;;24.73;;
61017;SDS011;48171;51.550;5.434;2023-04-06T04:59:13;69.40;;;25.63;;
61017;SDS011;48171;51.550;5.434;2023-04-06T05:01:38;63.45;;;24.98;;
61017;SDS011;48171;51.550;5.434;2023-04-06T05:04:03;63.05;;;25.15;;
61017;SDS011;48171;51.550;5.434;2023-04-06T05:06:29;61.90;;;24.85;;
61017;SDS011;48171;51.550;5.434;2023-04-06T05:08:54;65.95;;;25.35;;
61017;SDS011;48171;51.550;5.434;2023-04-06T05:11:20;66.28;;;24.52;;
61017;SDS011;48171;51.550;5.434;2023-04-06T05:13:46;62.85;;;24.23;;
61017;SDS011;48171;51.550;5.434;2023-04-06T05:16:11;60.65;;;22.95;;
61017;SDS011;48171;51.550;5.434;2023-04-06T05:18:36;66.03;;;24.35;;
61017;SDS011;48171;51.550;5.434;2023-04-06T05:21:02;64.93;;;25.50;;
61017;SDS011;48171;51.550;5.434;2023-04-06T05:23:27;61.85;;;24.70;;
61017;SDS011;48171;51.550;5.434;2023-04-06T05:25:53;67.45;;;25.95;;
61017;SDS011;48171;51.550;5.434;2023-04-06T05:28:18;71.90;;;25.38;;
61017;SDS011;48171;51.550;5.434;2023-04-06T05:30:44;64.15;;;25.90;;
61017;SDS011;48171;51.550;5.434;2023-04-06T05:33:10;70.25;;;26.55;;
61017;SDS011;48171;51.550;5.434;2023-04-06T05:35:35;68.25;;;24.50;;
61017;SDS011;48171;51.550;5.434;2023-04-06T05:38:01;67.68;;;25.95;;
61017;SDS011;48171;51.550;5.434;2023-04-06T05:40:26;67.95;;;25.67;;
61017;SDS011;48171;51.550;5.434;2023-04-06T05:42:51;63.30;;;26.48;;
61017;SDS011;48171;51.550;5.434;2023-04-06T05:45:16;66.13;;;26.15;;
61017;SDS011;48171;51.550;5.434;2023-04-06T05:47:43;65.82;;;26.25;;
61017;SDS011;48171;51.550;5.434;2023-04-06T05:50:09;69.40;;;26.27;;
61017;SDS011;48171;51.550;5.434;2023-04-06T05:52:39;61.63;;;26.58;;
61017;SDS011;48171;51.550;5.434;2023-04-06T05:55:07;70.90;;;26.52;;
61017;SDS011;48171;51.550;5.434;2023-04-06T05:57:33;74.35;;;28.70;;
61017;SDS011;48171;51.550;5.434;2023-04-06T05:59:58;70.13;;;27.17;;
61017;SDS011;48171;51.550;5.434;2023-04-06T06:02:24;73.70;;;28.20;;
61017;SDS011;48171;51.550;5.434;2023-04-06T06:04:49;69.65;;;27.30;;
61017;SDS011;48171;51.550;5.434;2023-04-06T06:07:14;76.45;;;28.48;;
61017;SDS011;48171;51.550;5.434;2023-04-06T06:09:40;77.63;;;27.33;;
61017;SDS011;48171;51.550;5.434;2023-04-06T06:12:05;75.10;;;27.38;;
61017;SDS011;48171;51.550;5.434;2023-04-06T06:14:30;72.13;;;28.52;;
61017;SDS011;48171;51.550;5.434;2023-04-06T06:16:56;73.80;;;28.08;;
61017;SDS011;48171;51.550;5.434;2023-04-06T06:19:21;77.03;;;28.02;;
61017;SDS011;48171;51.550;5.434;2023-04-06T06:21:46;76.57;;;28.20;;
61017;SDS011;48171;51.550;5.434;2023-04-06T06:24:11;75.57;;;27.25;;
61017;SDS011;48171;51.550;5.434;2023-04-06T06:26:37;83.60;;;28.25;;
61017;SDS011;48171;51.550;5.434;2023-04-06T06:29:04;80.95;;;28.70;;
61017;SDS011;48171;51.550;5.434;2023-04-06T06:31:32;78.50;;;27.83;;
61017;SDS011;48171;51.550;5.434;2023-04-06T06:33:57;76.28;;;27.98;;
61017;SDS011;48171;51.550;5.434;2023-04-06T06:36:23;80.82;;;29.10;;
61017;SDS011;48171;51.550;5.434;2023-04-06T06:38:48;77.30;;;25.73;;
61017;SDS011;48171;51.550;5.434;2023-04-06T06:41:13;73.05;;;26.05;;
61017;SDS011;48171;51.550;5.434;2023-04-06T06:43:39;71.45;;;26.35;;
61017;SDS011;48171;51.550;5.434;2023-04-06T06:46:04;76.88;;;28.23;;
61017;SDS011;48171;51.550;5.434;2023-04-06T06:48:30;73.93;;;27.20;;
61017;SDS011;48171;51.550;5.434;2023-04-06T06:50:56;75.45;;;26.05;;
61017;SDS011;48171;51.550;5.434;2023-04-06T06:53:22;76.05;;;26.70;;
61017;SDS011;48171;51.550;5.434;2023-04-06T06:55:48;79.85;;;26.52;;
61017;SDS011;48171;51.550;5.434;2023-04-06T06:58:17;75.35;;;25.60;;
61017;SDS011;48171;51.550;5.434;2023-04-06T07:00:44;69.88;;;26.35;;
61017;SDS011;48171;51.550;5.434;2023-04-06T07:03:09;83.82;;;27.73;;
61017;SDS011;48171;51.550;5.434;2023-04-06T07:05:34;80.32;;;27.85;;
61017;SDS011;48171;51.550;5.434;2023-04-06T07:08:00;68.10;;;26.40;;
61017;SDS011;48171;51.550;5.434;2023-04-06T07:10:25;74.38;;;27.20;;
61017;SDS011;48171;51.550;5.434;2023-04-06T07:12:51;80.60;;;26.85;;
61017;SDS011;48171;51.550;5.434;2023-04-06T07:15:16;77.65;;;26.25;;
61017;SDS011;48171;51.550;5.434;2023-04-06T07:17:42;73.80;;;26.90;;
61017;SDS011;48171;51.550;5.434;2023-04-06T07:20:10;77.80;;;26.08;;
61017;SDS011;48171;51.550;5.434;2023-04-06T07:22:35;82.40;;;27.25;;
61017;SDS011;48171;51.550;5.434;2023-04-06T07:25:01;84.10;;;28.13;;
61017;SDS011;48171;51.550;5.434;2023-04-06T07:27:26;79.03;;;27.33;;
61017;SDS011;48171;51.550;5.434;2023-04-06T07:29:51;70.88;;;26.80;;
61017;SDS011;48171;51.550;5.434;2023-04-06T07:32:16;79.68;;;26.65;;
61017;SDS011;48171;51.550;5.434;2023-04-06T07:34:42;73.90;;;25.42;;
61017;SDS011;48171;51.550;5.434;2023-04-06T07:37:07;70.78;;;25.05;;
61017;SDS011;48171;51.550;5.434;2023-04-06T07:39:33;75.43;;;25.83;;
61017;SDS011;48171;51.550;5.434;2023-04-06T07:41:58;65.05;;;24.38;;
61017;SDS011;48171;51.550;5.434;2023-04-06T07:44:24;81.18;;;26.45;;
61017;SDS011;48171;51.550;5.434;2023-04-06T07:46:49;77.43;;;26.55;;
61017;SDS011;48171;51.550;5.434;2023-04-06T07:49:14;75.85;;;25.98;;
61017;SDS011;48171;51.550;5.434;2023-04-06T07:51:40;69.03;;;25.90;;
61017;SDS011;48171;51.550;5.434;2023-04-06T07:54:05;70.60;;;26.35;;
61017;SDS011;48171;51.550;5.434;2023-04-06T07:56:30;65.38;;;24.13;;
61017;SDS011;48171;51.550;5.434;2023-04-06T07:58:56;75.38;;;26.08;;
61017;SDS011;48171;51.550;5.434;2023-04-06T08:01:23;80.18;;;25.88;;
61017;SDS011;48171;51.550;5.434;2023-04-06T08:03:48;78.15;;;26.05;;
61017;SDS011;48171;51.550;5.434;2023-04-06T08:06:15;74.22;;;26.40;;
61017;SDS011;48171;51.550;5.434;2023-04-06T08:08:41;72.53;;;24.88;;
61017;SDS011;48171;51.550;5.434;2023-04-06T08:11:06;76.47;;;25.40;;
61017;SDS011;48171;51.550;5.434;2023-04-06T08:13:31;67.43;;;24.83;;
61017;SDS011;48171;51.550;5.434;2023-04-06T08:15:57;73.32;;;25.20;;
61017;SDS011;48171;51.550;5.434;2023-04-06T08:18:23;73.60;;;26.65;;
61017;SDS011;48171;51.550;5.434;2023-04-06T08:20:48;69.25;;;24.95;;
61017;SDS011;48171;51.550;5.434;2023-04-06T08:23:14;70.15;;;24.20;;
61017;SDS011;48171;51.550;5.434;2023-04-06T08:25:40;73.20;;;25.48;;
61017;SDS011;48171;51.550;5.434;2023-04-06T08:28:06;72.78;;;23.85;;
61017;SDS011;48171;51.550;5.434;2023-04-06T08:30:33;72.00;;;24.73;;
61017;SDS011;48171;51.550;5.434;2023-04-06T08:32:58;72.75;;;25.48;;
61017;SDS011;48171;51.550;5.434;2023-04-06T08:35:24;75.43;;;26.10;;
61017;SDS011;48171;51.550;5.434;2023-04-06T08:37:50;75.53;;;24.38;;
61017;SDS011;48171;51.550;5.434;2023-04-06T08:40:16;79.72;;;26.25;;
61017;SDS011;48171;51.550;5.434;2023-04-06T08:42:43;67.95;;;24.33;;
61017;SDS011;48171;51.550;5.434;2023-04-06T08:45:13;72.30;;;25.27;;
61017;SDS011;48171;51.550;5.434;2023-04-06T08:47:40;74.13;;;25.17;;
61017;SDS011;48171;51.550;5.434;2023-04-06T08:50:07;68.20;;;23.85;;
61017;SDS011;48171;51.550;5.434;2023-04-06T08:52:33;70.22;;;23.67;;
61017;SDS011;48171;51.550;5.434;2023-04-06T08:54:59;64.82;;;25.65;;
61017;SDS011;48171;51.550;5.434;2023-04-06T08:57:25;75.07;;;24.63;;
61017;SDS011;48171;51.550;5.434;2023-04-06T08:59:51;74.35;;;26.23;;
61017;SDS011;48171;51.550;5.434;2023-04-06T09:02:17;76.00;;;25.60;;
61017;SDS011;48171;51.550;5.434;2023-04-06T09:04:45;76.80;;;23.33;;
61017;SDS011;48171;51.550;5.434;2023-04-06T09:07:12;69.75;;;24.10;;
61017;SDS011;48171;51.550;5.434;2023-04-06T09:09:37;71.32;;;24.48;;
61017;SDS011;48171;51.550;5.434;2023-04-06T09:12:08;75.30;;;25.35;;
61017;SDS011;48171;51.550;5.434;2023-04-06T09:14:37;71.03;;;24.70;;
61017;SDS011;48171;51.550;5.434;2023-04-06T09:17:03;79.32;;;26.92;;
61017;SDS011;48171;51.550;5.434;2023-04-06T09:19:29;70.72;;;25.80;;
61017;SDS011;48171;51.550;5.434;2023-04-06T09:22:04;109.07;;;26.33;;
61017;SDS011;48171;51.550;5.434;2023-04-06T09:27:07;63.95;;;23.27;;
61017;SDS011;48171;51.550;5.434;2023-04-06T09:29:33;68.75;;;25.05;;
61017;SDS011;48171;51.550;5.434;2023-04-06T09:32:03;68.00;;;23.20;;
61017;SDS011;48171;51.550;5.434;2023-04-06T09:34:29;66.70;;;24.90;;
61017;SDS011;48171;51.550;5.434;2023-04-06T09:36:55;66.10;;;24.15;;
61017;SDS011;48171;51.550;5.434;2023-04-06T09:39:21;62.15;;;23.40;;
61017;SDS011;48171;51.550;5.434;2023-04-06T09:41:49;58.55;;;21.08;;
61017;SDS011;48171;51.550;5.434;2023-04-06T09:44:16;58.38;;;21.67;;
61017;SDS011;48171;51.550;5.434;2023-04-06T09:46:41;66.60;;;22.33;;
61017;SDS011;48171;51.550;5.434;2023-04-06T09:49:09;70.72;;;22.98;;
61017;SDS011;48171;51.550;5.434;2023-04-06T09:54:18;63.13;;;22.83;;
61017;SDS011;48171;51.550;5.434;2023-04-06T09:56:47;54.38;;;20.02;;
61017;SDS011;48171;51.550;5.434;2023-04-06T10:00:01;53.83;;;19.92;;
61017;SDS011;48171;51.550;5.434;2023-04-06T10:05:09;49.00;;;19.73;;
61017;SDS011;48171;51.550;5.434;2023-04-06T10:07:39;54.72;;;20.77;;
61017;SDS011;48171;51.550;5.434;2023-04-06T10:10:06;49.92;;;19.80;;
61017;SDS011;48171;51.550;5.434;2023-04-06T10:12:32;51.88;;;19.33;;
61017;SDS011;48171;51.550;5.434;2023-04-06T10:14:57;46.75;;;18.15;;
61017;SDS011;48171;51.550;5.434;2023-04-06T10:17:22;43.88;;;18.13;;
61017;SDS011;48171;51.550;5.434;2023-04-06T10:19:59;45.55;;;17.23;;
61017;SDS011;48171;51.550;5.434;2023-04-06T10:22:41;44.53;;;16.55;;
61017;SDS011;48171;51.550;5.434;2023-04-06T10:25:08;42.53;;;17.10;;
61017;SDS011;48171;51.550;5.434;2023-04-06T10:27:33;43.67;;;17.67;;
61017;SDS011;48171;51.550;5.434;2023-04-06T10:30:03;42.78;;;14.98;;
61017;SDS011;48171;51.550;5.434;2023-04-06T10:32:33;37.03;;;15.10;;
61017;SDS011;48171;51.550;5.434;2023-04-06T10:35:10;32.42;;;14.13;;
61017;SDS011;48171;51.550;5.434;2023-04-06T10:38:00;36.50;;;15.32;;
61017;SDS011;48171;51.550;5.434;2023-04-06T10:40:27;34.45;;;13.60;;
61017;SDS011;48171;51.550;5.434;2023-04-06T10:42:53;32.03;;;14.02;;
61017;SDS011;48171;51.550;5.434;2023-04-06T10:45:20;32.65;;;14.85;;
61017;SDS011;48171;51.550;5.434;2023-04-06T10:50:17;28.17;;;12.55;;
61017;SDS011;48171;51.550;5.434;2023-04-06T10:52:45;32.33;;;13.05;;
61017;SDS011;48171;51.550;5.434;2023-04-06T10:55:14;36.00;;;14.45;;
61017;SDS011;48171;51.550;5.434;2023-04-06T10:57:40;30.65;;;13.30;;
61017;SDS011;48171;51.550;5.434;2023-04-06T11:00:08;33.67;;;12.38;;
61017;SDS011;48171;51.550;5.434;2023-04-06T11:02:35;27.98;;;12.23;;
61017;SDS011;48171;51.550;5.434;2023-04-06T11:05:02;25.20;;;11.48;;
61017;SDS011;48171;51.550;5.434;2023-04-06T11:07:28;30.83;;;11.63;;
61017;SDS011;48171;51.550;5.434;2023-04-06T11:09:55;29.58;;;11.27;;
61017;SDS011;48171;51.550;5.434;2023-04-06T11:12:22;23.40;;;11.25;;
61017;SDS011;48171;51.550;5.434;2023-04-06T11:14:58;25.50;;;12.18;;
61017;SDS011;48171;51.550;5.434;2023-04-06T11:17:29;25.95;;;10.98;;
61017;SDS011;48171;51.550;5.434;2023-04-06T11:19:56;25.55;;;10.60;;
61017;SDS011;48171;51.550;5.434;2023-04-06T11:22:23;26.00;;;11.27;;
61017;SDS011;48171;51.550;5.434;2023-04-06T11:24:48;32.85;;;11.43;;
61017;SDS011;48171;51.550;5.434;2023-04-06T11:27:14;29.08;;;12.45;;
61017;SDS011;48171;51.550;5.434;2023-04-06T11:29:43;27.98;;;12.27;;
61017;SDS011;48171;51.550;5.434;2023-04-06T11:32:11;28.00;;;11.65;;
61017;SDS011;48171;51.550;5.434;2023-04-06T11:34:37;27.17;;;11.50;;
61017;SDS011;48171;51.550;5.434;2023-04-06T11:37:09;28.20;;;11.85;;
61017;SDS011;48171;51.550;5.434;2023-04-06T11:39:38;29.80;;;11.77;;
61017;SDS011;48171;51.550;5.434;2023-04-06T11:47:11;31.02;;;11.60;;
61017;SDS011;48171;51.550;5.434;2023-04-06T11:49:38;27.67;;;11.57;;
61017;SDS011;48171;51.550;5.434;2023-04-06T11:52:13;27.95;;;12.57;;
61017;SDS011;48171;51.550;5.434;2023-04-06T11:54:40;28.70;;;12.48;;
61017;SDS011;48171;51.550;5.434;2023-04-06T11:57:07;28.83;;;11.52;;
61017;SDS011;48171;51.550;5.434;2023-04-06T11:59:33;27.70;;;11.43;;
61017;SDS011;48171;51.550;5.434;2023-04-06T12:01:59;28.00;;;11.40;;
61017;SDS011;48171;51.550;5.434;2023-04-06T12:04:29;26.02;;;11.30;;
61017;SDS011;48171;51.550;5.434;2023-04-06T12:06:54;27.05;;;12.20;;
61017;SDS011;48171;51.550;5.434;2023-04-06T12:09:20;28.67;;;11.68;;
61017;SDS011;48171;51.550;5.434;2023-04-06T12:11:46;27.55;;;12.63;;
61017;SDS011;48171;51.550;5.434;2023-04-06T12:14:11;28.77;;;12.25;;
61017;SDS011;48171;51.550;5.434;2023-04-06T12:16:37;29.13;;;12.52;;
61017;SDS011;48171;51.550;5.434;2023-04-06T12:19:03;29.70;;;13.32;;
61017;SDS011;48171;51.550;5.434;2023-04-06T12:21:30;27.13;;;11.63;;
61017;SDS011;48171;51.550;5.434;2023-04-06T12:23:56;28.17;;;11.45;;
61017;SDS011;48171;51.550;5.434;2023-04-06T12:26:23;25.65;;;11.43;;
61017;SDS011;48171;51.550;5.434;2023-04-06T12:28:48;26.25;;;11.63;;
61017;SDS011;48171;51.550;5.434;2023-04-06T12:31:14;26.00;;;11.57;;
61017;SDS011;48171;51.550;5.434;2023-04-06T12:33:41;24.42;;;11.18;;
61017;SDS011;48171;51.550;5.434;2023-04-06T12:36:11;25.92;;;11.45;;
61017;SDS011;48171;51.550;5.434;2023-04-06T12:38:37;25.63;;;10.75;;
61017;SDS011;48171;51.550;5.434;2023-04-06T12:41:04;26.15;;;11.18;;
61017;SDS011;48171;51.550;5.434;2023-04-06T12:43:30;26.15;;;12.55;;
61017;SDS011;48171;51.550;5.434;2023-04-06T12:45:55;23.20;;;10.80;;
61017;SDS011;48171;51.550;5.434;2023-04-06T12:48:20;26.17;;;12.07;;
61017;SDS011;48171;51.550;5.434;2023-04-06T12:50:53;27.83;;;11.60;;
61017;SDS011;48171;51.550;5.434;2023-04-06T12:53:26;30.35;;;12.05;;
61017;SDS011;48171;51.550;5.434;2023-04-06T12:55:53;27.15;;;11.88;;
61017;SDS011;48171;51.550;5.434;2023-04-06T12:58:19;26.55;;;11.55;;
61017;SDS011;48171;51.550;5.434;2023-04-06T13:00:44;24.83;;;12.30;;
61017;SDS011;48171;51.550;5.434;2023-04-06T13:03:10;23.17;;;11.07;;
61017;SDS011;48171;51.550;5.434;2023-04-06T13:05:36;28.20;;;11.48;;
61017;SDS011;48171;51.550;5.434;2023-04-06T13:08:01;28.40;;;12.38;;
61017;SDS011;48171;51.550;5.434;2023-04-06T13:10:26;26.95;;;12.15;;
61017;SDS011;48171;51.550;5.434;2023-04-06T13:12:52;25.10;;;11.88;;
61017;SDS011;48171;51.550;5.434;2023-04-06T13:15:17;22.40;;;10.23;;
61017;SDS011;48171;51.550;5.434;2023-04-06T13:17:42;25.40;;;11.52;;
61017;SDS011;48171;51.550;5.434;2023-04-06T13:20:08;25.80;;;11.77;;
61017;SDS011;48171;51.550;5.434;2023-04-06T13:22:33;25.52;;;11.20;;
61017;SDS011;48171;51.550;5.434;2023-04-06T13:24:59;23.58;;;11.60;;
61017;SDS011;48171;51.550;5.434;2023-04-06T13:27:24;31.08;;;12.23;;
61017;SDS011;48171;51.550;5.434;2023-04-06T13:29:50;26.52;;;11.57;;
61017;SDS011;48171;51.550;5.434;2023-04-06T13:32:15;26.30;;;11.45;;
61017;SDS011;48171;51.550;5.434;2023-04-06T13:34:40;23.80;;;11.50;;
61017;SDS011;48171;51.550;5.434;2023-04-06T13:37:09;23.45;;;10.85;;
61017;SDS011;48171;51.550;5.434;2023-04-06T13:39:35;29.13;;;12.55;;
61017;SDS011;48171;51.550;5.434;2023-04-06T13:42:01;26.60;;;11.57;;
61017;SDS011;48171;51.550;5.434;2023-04-06T13:44:27;26.20;;;11.73;;
61017;SDS011;48171;51.550;5.434;2023-04-06T13:46:53;25.63;;;11.48;;
61017;SDS011;48171;51.550;5.434;2023-04-06T13:49:18;25.85;;;11.90;;
61017;SDS011;48171;51.550;5.434;2023-04-06T13:51:43;27.58;;;12.32;;
61017;SDS011;48171;51.550;5.434;2023-04-06T13:54:09;25.40;;;12.18;;
61017;SDS011;48171;51.550;5.434;2023-04-06T13:56:34;24.20;;;11.77;;
61017;SDS011;48171;51.550;5.434;2023-04-06T13:58:59;23.83;;;10.80;;
61017;SDS011;48171;51.550;5.434;2023-04-06T14:01:25;27.50;;;12.27;;
61017;SDS011;48171;51.550;5.434;2023-04-06T14:03:51;25.15;;;12.00;;
61017;SDS011;48171;51.550;5.434;2023-04-06T14:06:17;25.17;;;11.30;;
61017;SDS011;48171;51.550;5.434;2023-04-06T14:08:42;22.38;;;11.65;;
61017;SDS011;48171;51.550;5.434;2023-04-06T14:11:11;30.45;;;12.88;;
61017;SDS011;48171;51.550;5.434;2023-04-06T14:13:37;25.17;;;10.93;;
61017;SDS011;48171;51.550;5.434;2023-04-06T14:16:03;28.00;;;12.02;;
61017;SDS011;48171;51.550;5.434;2023-04-06T14:18:28;26.17;;;12.07;;
61017;SDS011;48171;51.550;5.434;2023-04-06T14:20:56;22.38;;;11.23;;
61017;SDS011;48171;51.550;5.434;2023-04-06T14:23:22;23.13;;;11.43;;
61017;SDS011;48171;51.550;5.434;2023-04-06T14:25:48;27.63;;;12.48;;
61017;SDS011;48171;51.550;5.434;2023-04-06T14:28:13;23.65;;;11.43;;
61017;SDS011;48171;51.550;5.434;2023-04-06T14:30:39;23.95;;;12.25;;